sensor_id;sensor_type;location;lat;lon;timestamp;temperature;humidity
65239;SHT30;51827;51.186;6.926;2023-11-22T00:00:50;19.02;56.89
65239;SHT30;51827;51.186;6.926;2023-11-22T00:01:51;19.00;56.84
65239;SHT30;51827;51.186;6.926;2023-11-22T00:02:51;19.03;56.89
65239;SHT30;51827;51.186;6.926;2023-11-22T00:03:51;19.00;56.86
65239;SHT30;51827;51.186;6.926;2023-11-22T00:04:51;19.00;56.90
65239;SHT30;51827;51.186;6.926;2023-11-22T00:05:51;19.00;56.92
65239;SHT30;51827;51.186;6.926;2023-11-22T00:06:52;18.99;56.88
65239;SHT30;51827;51.186;6.926;2023-11-22T00:07:52;19.02;56.91
65239;SHT30;51827;51.186;6.926;2023-11-22T00:08:52;18.98;56.91
65239;SHT30;51827;51.186;6.926;2023-11-22T00:09:53;18.99;56.91
65239;SHT30;51827;51.186;6.926;2023-11-22T00:10:53;18.98;56.88
65239;SHT30;51827;51.186;6.926;2023-11-22T00:11:53;18.99;56.89
65239;SHT30;51827;51.186;6.926;2023-11-22T00:12:53;18.98;56.90
65239;SHT30;51827;51.186;6.926;2023-11-22T00:13:53;19.00;56.90
65239;SHT30;51827;51.186;6.926;2023-11-22T00:14:54;18.98;56.91
65239;SHT30;51827;51.186;6.926;2023-11-22T00:15:54;18.99;56.83
65239;SHT30;51827;51.186;6.926;2023-11-22T00:16:54;18.99;56.88
65239;SHT30;51827;51.186;6.926;2023-11-22T00:17:55;19.00;56.92
65239;SHT30;51827;51.186;6.926;2023-11-22T00:18:55;19.00;56.86
65239;SHT30;51827;51.186;6.926;2023-11-22T00:19:55;18.99;56.88
65239;SHT30;51827;51.186;6.926;2023-11-22T00:20:55;19.02;56.90
65239;SHT30;51827;51.186;6.926;2023-11-22T00:21:56;19.00;56.89
65239;SHT30;51827;51.186;6.926;2023-11-22T00:22:56;19.03;56.89
65239;SHT30;51827;51.186;6.926;2023-11-22T00:23:57;18.99;56.90
65239;SHT30;51827;51.186;6.926;2023-11-22T00:24:58;19.00;56.89
65239;SHT30;51827;51.186;6.926;2023-11-22T00:25:58;18.98;56.87
65239;SHT30;51827;51.186;6.926;2023-11-22T00:26:58;19.02;56.86
65239;SHT30;51827;51.186;6.926;2023-11-22T00:27:58;19.02;56.86
65239;SHT30;51827;51.186;6.926;2023-11-22T00:28:59;18.99;56.84
65239;SHT30;51827;51.186;6.926;2023-11-22T00:29:59;18.99;56.91
65239;SHT30;51827;51.186;6.926;2023-11-22T00:31:00;18.98;56.93
65239;SHT30;51827;51.186;6.926;2023-11-22T00:32:00;18.95;56.91
65239;SHT30;51827;51.186;6.926;2023-11-22T00:33:01;18.99;56.91
65239;SHT30;51827;51.186;6.926;2023-11-22T00:34:01;18.99;56.88
65239;SHT30;51827;51.186;6.926;2023-11-22T00:35:01;18.95;56.90
65239;SHT30;51827;51.186;6.926;2023-11-22T00:36:01;18.98;56.88
65239;SHT30;51827;51.186;6.926;2023-11-22T00:37:02;18.98;56.90
65239;SHT30;51827;51.186;6.926;2023-11-22T00:38:02;18.98;56.94
65239;SHT30;51827;51.186;6.926;2023-11-22T00:39:02;18.99;56.90
65239;SHT30;51827;51.186;6.926;2023-11-22T00:40:03;18.96;56.86
65239;SHT30;51827;51.186;6.926;2023-11-22T00:41:03;18.98;56.90
65239;SHT30;51827;51.186;6.926;2023-11-22T00:42:04;18.99;56.85
65239;SHT30;51827;51.186;6.926;2023-11-22T00:43:04;18.99;56.89
65239;SHT30;51827;51.186;6.926;2023-11-22T00:44:05;18.99;56.88
65239;SHT30;51827;51.186;6.926;2023-11-22T00:45:06;18.99;56.82
65239;SHT30;51827;51.186;6.926;2023-11-22T00:46:06;18.99;56.86
65239;SHT30;51827;51.186;6.926;2023-11-22T00:47:06;18.96;56.88
65239;SHT30;51827;51.186;6.926;2023-11-22T00:48:07;18.99;56.88
65239;SHT30;51827;51.186;6.926;2023-11-22T00:49:07;18.99;56.87
65239;SHT30;51827;51.186;6.926;2023-11-22T00:50:08;18.98;56.84
65239;SHT30;51827;51.186;6.926;2023-11-22T00:51:08;18.99;56.86
65239;SHT30;51827;51.186;6.926;2023-11-22T00:52:08;18.98;56.85
65239;SHT30;51827;51.186;6.926;2023-11-22T00:53:09;18.98;56.88
65239;SHT30;51827;51.186;6.926;2023-11-22T00:54:09;18.98;56.88
65239;SHT30;51827;51.186;6.926;2023-11-22T00:55:09;18.99;56.84
65239;SHT30;51827;51.186;6.926;2023-11-22T00:56:09;18.98;56.87
65239;SHT30;51827;51.186;6.926;2023-11-22T00:57:10;18.99;56.82
65239;SHT30;51827;51.186;6.926;2023-11-22T00:58:10;18.96;56.86
65239;SHT30;51827;51.186;6.926;2023-11-22T00:59:10;18.99;56.86
65239;SHT30;51827;51.186;6.926;2023-11-22T01:00:11;18.98;56.86
65239;SHT30;51827;51.186;6.926;2023-11-22T01:01:11;18.98;56.88
65239;SHT30;51827;51.186;6.926;2023-11-22T01:02:11;18.95;56.86
65239;SHT30;51827;51.186;6.926;2023-11-22T01:03:11;18.98;56.83
65239;SHT30;51827;51.186;6.926;2023-11-22T01:04:11;18.98;56.86
65239;SHT30;51827;51.186;6.926;2023-11-22T01:05:12;18.99;56.86
65239;SHT30;51827;51.186;6.926;2023-11-22T01:06:12;18.99;56.88
65239;SHT30;51827;51.186;6.926;2023-11-22T01:07:13;18.99;56.88
65239;SHT30;51827;51.186;6.926;2023-11-22T01:08:13;18.98;56.87
65239;SHT30;51827;51.186;6.926;2023-11-22T01:09:13;19.00;56.86
65239;SHT30;51827;51.186;6.926;2023-11-22T01:10:14;18.95;56.83
65239;SHT30;51827;51.186;6.926;2023-11-22T01:11:14;18.99;56.85
65239;SHT30;51827;51.186;6.926;2023-11-22T01:12:14;18.96;56.89
65239;SHT30;51827;51.186;6.926;2023-11-22T01:13:14;18.98;56.86
65239;SHT30;51827;51.186;6.926;2023-11-22T01:14:15;18.99;56.86
65239;SHT30;51827;51.186;6.926;2023-11-22T01:15:15;18.96;56.88
65239;SHT30;51827;51.186;6.926;2023-11-22T01:16:15;18.95;56.85
65239;SHT30;51827;51.186;6.926;2023-11-22T01:17:15;18.98;56.87
65239;SHT30;51827;51.186;6.926;2023-11-22T01:18:16;18.96;56.90
65239;SHT30;51827;51.186;6.926;2023-11-22T01:19:16;18.96;56.86
65239;SHT30;51827;51.186;6.926;2023-11-22T01:20:16;18.99;56.86
65239;SHT30;51827;51.186;6.926;2023-11-22T01:21:16;18.96;56.86
65239;SHT30;51827;51.186;6.926;2023-11-22T01:22:17;18.98;56.86
65239;SHT30;51827;51.186;6.926;2023-11-22T01:23:17;18.98;56.88
65239;SHT30;51827;51.186;6.926;2023-11-22T01:24:17;18.96;56.89
65239;SHT30;51827;51.186;6.926;2023-11-22T01:25:17;18.99;56.84
65239;SHT30;51827;51.186;6.926;2023-11-22T01:26:17;18.96;56.89
65239;SHT30;51827;51.186;6.926;2023-11-22T01:27:18;18.95;56.86
65239;SHT30;51827;51.186;6.926;2023-11-22T01:28:18;18.96;56.86
65239;SHT30;51827;51.186;6.926;2023-11-22T01:29:18;18.96;56.87
65239;SHT30;51827;51.186;6.926;2023-11-22T01:30:18;18.96;56.88
65239;SHT30;51827;51.186;6.926;2023-11-22T01:31:19;18.98;56.87
65239;SHT30;51827;51.186;6.926;2023-11-22T01:32:19;18.95;56.85
65239;SHT30;51827;51.186;6.926;2023-11-22T01:33:23;18.96;56.86
65239;SHT30;51827;51.186;6.926;2023-11-22T01:34:23;18.99;56.86
65239;SHT30;51827;51.186;6.926;2023-11-22T01:35:23;18.96;56.84
65239;SHT30;51827;51.186;6.926;2023-11-22T01:36:23;18.95;56.86
65239;SHT30;51827;51.186;6.926;2023-11-22T01:37:24;18.95;56.88
65239;SHT30;51827;51.186;6.926;2023-11-22T01:38:24;18.96;56.88
65239;SHT30;51827;51.186;6.926;2023-11-22T01:39:24;18.95;56.87
65239;SHT30;51827;51.186;6.926;2023-11-22T01:40:24;18.98;56.84
65239;SHT30;51827;51.186;6.926;2023-11-22T01:41:25;18.96;56.86
65239;SHT30;51827;51.186;6.926;2023-11-22T01:42:25;18.99;56.82
65239;SHT30;51827;51.186;6.926;2023-11-22T01:43:26;18.96;56.84
65239;SHT30;51827;51.186;6.926;2023-11-22T01:44:26;18.95;56.87
65239;SHT30;51827;51.186;6.926;2023-11-22T01:45:27;18.95;56.86
65239;SHT30;51827;51.186;6.926;2023-11-22T01:46:27;18.95;56.86
65239;SHT30;51827;51.186;6.926;2023-11-22T01:47:27;18.95;56.85
65239;SHT30;51827;51.186;6.926;2023-11-22T01:48:28;18.92;56.85
65239;SHT30;51827;51.186;6.926;2023-11-22T01:49:29;18.94;56.84
65239;SHT30;51827;51.186;6.926;2023-11-22T01:50:29;18.98;56.80
65239;SHT30;51827;51.186;6.926;2023-11-22T01:51:30;18.96;56.77
65239;SHT30;51827;51.186;6.926;2023-11-22T01:52:31;18.95;56.80
65239;SHT30;51827;51.186;6.926;2023-11-22T01:53:32;18.95;56.82
65239;SHT30;51827;51.186;6.926;2023-11-22T01:54:33;18.95;56.82
65239;SHT30;51827;51.186;6.926;2023-11-22T01:55:34;18.98;56.82
65239;SHT30;51827;51.186;6.926;2023-11-22T01:56:35;18.95;56.76
65239;SHT30;51827;51.186;6.926;2023-11-22T01:57:36;18.96;56.82
65239;SHT30;51827;51.186;6.926;2023-11-22T01:58:37;18.95;56.82
65239;SHT30;51827;51.186;6.926;2023-11-22T01:59:37;18.95;56.77
65239;SHT30;51827;51.186;6.926;2023-11-22T02:00:51;18.95;56.76
65239;SHT30;51827;51.186;6.926;2023-11-22T02:01:53;18.94;56.74
65239;SHT30;51827;51.186;6.926;2023-11-22T02:02:53;18.95;56.82
65239;SHT30;51827;51.186;6.926;2023-11-22T02:03:54;18.96;56.78
65239;SHT30;51827;51.186;6.926;2023-11-22T02:04:54;18.99;56.77
65239;SHT30;51827;51.186;6.926;2023-11-22T02:05:54;18.95;56.78
65239;SHT30;51827;51.186;6.926;2023-11-22T02:06:55;18.98;56.78
65239;SHT30;51827;51.186;6.926;2023-11-22T02:07:55;18.95;56.78
65239;SHT30;51827;51.186;6.926;2023-11-22T02:08:57;18.96;56.76
65239;SHT30;51827;51.186;6.926;2023-11-22T02:10:00;18.98;56.77
65239;SHT30;51827;51.186;6.926;2023-11-22T02:11:01;18.95;56.78
65239;SHT30;51827;51.186;6.926;2023-11-22T02:12:02;18.92;56.76
65239;SHT30;51827;51.186;6.926;2023-11-22T02:13:03;18.95;56.78
65239;SHT30;51827;51.186;6.926;2023-11-22T02:14:03;18.95;56.77
65239;SHT30;51827;51.186;6.926;2023-11-22T02:15:04;18.95;56.73
65239;SHT30;51827;51.186;6.926;2023-11-22T02:16:05;18.94;56.75
65239;SHT30;51827;51.186;6.926;2023-11-22T02:17:05;18.95;56.75
65239;SHT30;51827;51.186;6.926;2023-11-22T02:18:05;18.95;56.77
65239;SHT30;51827;51.186;6.926;2023-11-22T02:19:06;18.94;56.74
65239;SHT30;51827;51.186;6.926;2023-11-22T02:20:07;18.95;56.77
65239;SHT30;51827;51.186;6.926;2023-11-22T02:21:07;18.95;56.74
65239;SHT30;51827;51.186;6.926;2023-11-22T02:22:08;18.95;56.76
65239;SHT30;51827;51.186;6.926;2023-11-22T02:23:09;18.95;56.71
65239;SHT30;51827;51.186;6.926;2023-11-22T02:24:10;18.95;56.71
65239;SHT30;51827;51.186;6.926;2023-11-22T02:25:10;18.94;56.74
65239;SHT30;51827;51.186;6.926;2023-11-22T02:26:10;18.95;56.74
65239;SHT30;51827;51.186;6.926;2023-11-22T02:27:10;18.96;56.75
65239;SHT30;51827;51.186;6.926;2023-11-22T02:28:11;18.95;56.71
65239;SHT30;51827;51.186;6.926;2023-11-22T02:29:12;18.95;56.74
65239;SHT30;51827;51.186;6.926;2023-11-22T02:30:12;18.92;56.76
65239;SHT30;51827;51.186;6.926;2023-11-22T02:31:12;18.94;56.71
65239;SHT30;51827;51.186;6.926;2023-11-22T02:32:13;18.94;56.71
65239;SHT30;51827;51.186;6.926;2023-11-22T02:33:13;18.95;56.73
65239;SHT30;51827;51.186;6.926;2023-11-22T02:34:13;18.94;56.70
65239;SHT30;51827;51.186;6.926;2023-11-22T02:35:13;18.96;56.69
65239;SHT30;51827;51.186;6.926;2023-11-22T02:36:14;18.94;56.74
65239;SHT30;51827;51.186;6.926;2023-11-22T02:37:14;18.92;56.68
65239;SHT30;51827;51.186;6.926;2023-11-22T02:38:14;18.92;56.73
65239;SHT30;51827;51.186;6.926;2023-11-22T02:39:14;18.95;56.73
65239;SHT30;51827;51.186;6.926;2023-11-22T02:41:15;18.91;56.69
65239;SHT30;51827;51.186;6.926;2023-11-22T02:42:15;18.92;56.71
65239;SHT30;51827;51.186;6.926;2023-11-22T02:43:15;18.94;56.68
65239;SHT30;51827;51.186;6.926;2023-11-22T02:44:15;18.92;56.69
65239;SHT30;51827;51.186;6.926;2023-11-22T02:45:17;18.92;56.69
65239;SHT30;51827;51.186;6.926;2023-11-22T02:46:17;18.92;56.70
65239;SHT30;51827;51.186;6.926;2023-11-22T02:47:17;18.94;56.68
65239;SHT30;51827;51.186;6.926;2023-11-22T02:48:18;18.96;56.72
65239;SHT30;51827;51.186;6.926;2023-11-22T02:49:18;18.92;56.68
65239;SHT30;51827;51.186;6.926;2023-11-22T02:50:18;18.91;56.71
65239;SHT30;51827;51.186;6.926;2023-11-22T02:51:18;18.94;56.68
65239;SHT30;51827;51.186;6.926;2023-11-22T02:52:19;18.92;56.69
65239;SHT30;51827;51.186;6.926;2023-11-22T02:53:19;18.92;56.70
65239;SHT30;51827;51.186;6.926;2023-11-22T02:54:20;18.94;56.67
65239;SHT30;51827;51.186;6.926;2023-11-22T02:55:20;18.92;56.65
65239;SHT30;51827;51.186;6.926;2023-11-22T02:56:20;18.94;56.64
65239;SHT30;51827;51.186;6.926;2023-11-22T02:57:20;18.92;56.64
65239;SHT30;51827;51.186;6.926;2023-11-22T02:58:21;18.92;56.67
65239;SHT30;51827;51.186;6.926;2023-11-22T02:59:21;18.95;56.64
65239;SHT30;51827;51.186;6.926;2023-11-22T03:00:22;18.95;56.64
65239;SHT30;51827;51.186;6.926;2023-11-22T03:01:22;18.92;56.65
65239;SHT30;51827;51.186;6.926;2023-11-22T03:02:22;18.95;56.67
65239;SHT30;51827;51.186;6.926;2023-11-22T03:03:23;18.95;56.64
65239;SHT30;51827;51.186;6.926;2023-11-22T03:04:23;18.92;56.69
65239;SHT30;51827;51.186;6.926;2023-11-22T03:05:23;18.91;56.67
65239;SHT30;51827;51.186;6.926;2023-11-22T03:06:24;18.92;56.71
65239;SHT30;51827;51.186;6.926;2023-11-22T03:08:24;18.96;56.68
65239;SHT30;51827;51.186;6.926;2023-11-22T03:09:24;18.95;56.68
65239;SHT30;51827;51.186;6.926;2023-11-22T03:10:24;18.92;56.64
65239;SHT30;51827;51.186;6.926;2023-11-22T03:11:25;18.94;56.69
65239;SHT30;51827;51.186;6.926;2023-11-22T03:12:25;18.94;56.68
65239;SHT30;51827;51.186;6.926;2023-11-22T03:13:25;18.92;56.69
65239;SHT30;51827;51.186;6.926;2023-11-22T03:14:25;18.92;56.69
65239;SHT30;51827;51.186;6.926;2023-11-22T03:15:26;18.92;56.71
65239;SHT30;51827;51.186;6.926;2023-11-22T03:16:26;18.91;56.66
65239;SHT30;51827;51.186;6.926;2023-11-22T03:17:26;18.92;56.68
65239;SHT30;51827;51.186;6.926;2023-11-22T03:18:27;18.94;56.61
65239;SHT30;51827;51.186;6.926;2023-11-22T03:19:27;18.92;56.66
65239;SHT30;51827;51.186;6.926;2023-11-22T03:20:27;18.89;56.65
65239;SHT30;51827;51.186;6.926;2023-11-22T03:21:27;18.91;56.69
65239;SHT30;51827;51.186;6.926;2023-11-22T03:22:28;18.89;56.64
65239;SHT30;51827;51.186;6.926;2023-11-22T03:23:28;18.91;56.66
65239;SHT30;51827;51.186;6.926;2023-11-22T03:24:31;18.94;56.64
65239;SHT30;51827;51.186;6.926;2023-11-22T03:25:31;18.91;56.59
65239;SHT30;51827;51.186;6.926;2023-11-22T03:26:32;18.92;56.63
65239;SHT30;51827;51.186;6.926;2023-11-22T03:27:32;18.94;56.63
65239;SHT30;51827;51.186;6.926;2023-11-22T03:28:32;18.94;56.65
65239;SHT30;51827;51.186;6.926;2023-11-22T03:29:33;18.92;56.65
65239;SHT30;51827;51.186;6.926;2023-11-22T03:30:33;18.91;56.67
65239;SHT30;51827;51.186;6.926;2023-11-22T03:31:33;18.92;56.68
65239;SHT30;51827;51.186;6.926;2023-11-22T03:32:33;18.91;56.63
65239;SHT30;51827;51.186;6.926;2023-11-22T03:33:33;18.92;56.64
65239;SHT30;51827;51.186;6.926;2023-11-22T03:34:34;18.94;56.64
65239;SHT30;51827;51.186;6.926;2023-11-22T03:35:34;18.92;56.60
65239;SHT30;51827;51.186;6.926;2023-11-22T03:36:34;18.89;56.65
65239;SHT30;51827;51.186;6.926;2023-11-22T03:37:35;18.89;56.66
65239;SHT30;51827;51.186;6.926;2023-11-22T03:38:35;18.89;56.65
65239;SHT30;51827;51.186;6.926;2023-11-22T03:39:35;18.94;56.62
65239;SHT30;51827;51.186;6.926;2023-11-22T03:40:35;18.91;56.63
65239;SHT30;51827;51.186;6.926;2023-11-22T03:41:36;18.92;56.62
65239;SHT30;51827;51.186;6.926;2023-11-22T03:42:37;18.91;56.66
65239;SHT30;51827;51.186;6.926;2023-11-22T03:43:38;18.89;56.63
65239;SHT30;51827;51.186;6.926;2023-11-22T03:44:38;18.91;56.64
65239;SHT30;51827;51.186;6.926;2023-11-22T03:45:38;18.92;56.62
65239;SHT30;51827;51.186;6.926;2023-11-22T03:46:39;18.89;56.62
65239;SHT30;51827;51.186;6.926;2023-11-22T03:47:39;18.92;56.64
65239;SHT30;51827;51.186;6.926;2023-11-22T03:48:39;18.92;56.55
65239;SHT30;51827;51.186;6.926;2023-11-22T03:49:39;18.92;56.63
65239;SHT30;51827;51.186;6.926;2023-11-22T03:50:40;18.92;56.60
65239;SHT30;51827;51.186;6.926;2023-11-22T03:51:42;18.89;56.57
65239;SHT30;51827;51.186;6.926;2023-11-22T03:52:43;18.89;56.57
65239;SHT30;51827;51.186;6.926;2023-11-22T03:53:43;18.89;56.60
65239;SHT30;51827;51.186;6.926;2023-11-22T03:54:43;18.91;56.62
65239;SHT30;51827;51.186;6.926;2023-11-22T03:55:43;18.88;56.62
65239;SHT30;51827;51.186;6.926;2023-11-22T03:56:44;18.89;56.60
65239;SHT30;51827;51.186;6.926;2023-11-22T03:57:44;18.91;56.58
65239;SHT30;51827;51.186;6.926;2023-11-22T03:58:44;18.92;56.57
65239;SHT30;51827;51.186;6.926;2023-11-22T03:59:44;18.89;56.55
65239;SHT30;51827;51.186;6.926;2023-11-22T04:00:45;18.89;56.58
65239;SHT30;51827;51.186;6.926;2023-11-22T04:01:45;18.89;56.56
65239;SHT30;51827;51.186;6.926;2023-11-22T04:02:45;18.88;56.57
65239;SHT30;51827;51.186;6.926;2023-11-22T04:03:46;18.88;56.55
65239;SHT30;51827;51.186;6.926;2023-11-22T04:04:46;18.88;56.55
65239;SHT30;51827;51.186;6.926;2023-11-22T04:05:47;18.91;56.55
65239;SHT30;51827;51.186;6.926;2023-11-22T04:06:47;18.89;56.54
65239;SHT30;51827;51.186;6.926;2023-11-22T04:07:47;18.91;56.56
65239;SHT30;51827;51.186;6.926;2023-11-22T04:08:48;18.89;56.55
65239;SHT30;51827;51.186;6.926;2023-11-22T04:09:48;18.91;56.59
65239;SHT30;51827;51.186;6.926;2023-11-22T04:10:48;18.92;56.57
65239;SHT30;51827;51.186;6.926;2023-11-22T04:11:49;18.88;56.53
65239;SHT30;51827;51.186;6.926;2023-11-22T04:12:49;18.89;56.54
65239;SHT30;51827;51.186;6.926;2023-11-22T04:13:49;18.91;56.55
65239;SHT30;51827;51.186;6.926;2023-11-22T04:14:49;18.89;56.51
65239;SHT30;51827;51.186;6.926;2023-11-22T04:15:50;18.86;56.56
65239;SHT30;51827;51.186;6.926;2023-11-22T04:16:51;18.85;56.52
65239;SHT30;51827;51.186;6.926;2023-11-22T04:17:51;18.89;56.56
65239;SHT30;51827;51.186;6.926;2023-11-22T04:18:51;18.89;56.51
65239;SHT30;51827;51.186;6.926;2023-11-22T04:19:52;18.89;56.52
65239;SHT30;51827;51.186;6.926;2023-11-22T04:20:52;18.89;56.57
65239;SHT30;51827;51.186;6.926;2023-11-22T04:21:52;18.89;56.57
65239;SHT30;51827;51.186;6.926;2023-11-22T04:22:53;18.88;56.54
65239;SHT30;51827;51.186;6.926;2023-11-22T04:23:53;18.88;56.49
65239;SHT30;51827;51.186;6.926;2023-11-22T04:24:53;18.89;56.51
65239;SHT30;51827;51.186;6.926;2023-11-22T04:25:53;18.89;56.50
65239;SHT30;51827;51.186;6.926;2023-11-22T04:26:54;18.88;56.50
65239;SHT30;51827;51.186;6.926;2023-11-22T04:27:54;18.89;56.48
65239;SHT30;51827;51.186;6.926;2023-11-22T04:28:54;18.91;56.51
65239;SHT30;51827;51.186;6.926;2023-11-22T04:29:54;18.89;56.47
65239;SHT30;51827;51.186;6.926;2023-11-22T04:30:55;18.89;56.52
65239;SHT30;51827;51.186;6.926;2023-11-22T04:31:56;18.88;56.47
65239;SHT30;51827;51.186;6.926;2023-11-22T04:32:56;18.88;56.46
65239;SHT30;51827;51.186;6.926;2023-11-22T04:33:56;18.89;56.48
65239;SHT30;51827;51.186;6.926;2023-11-22T04:34:56;18.86;56.50
65239;SHT30;51827;51.186;6.926;2023-11-22T04:35:57;18.89;56.52
65239;SHT30;51827;51.186;6.926;2023-11-22T04:36:57;18.89;56.52
65239;SHT30;51827;51.186;6.926;2023-11-22T04:37:57;18.88;56.57
65239;SHT30;51827;51.186;6.926;2023-11-22T04:38:57;18.89;56.55
65239;SHT30;51827;51.186;6.926;2023-11-22T04:39:58;18.88;56.59
65239;SHT30;51827;51.186;6.926;2023-11-22T04:40:58;18.89;56.60
65239;SHT30;51827;51.186;6.926;2023-11-22T04:41:59;18.88;56.59
65239;SHT30;51827;51.186;6.926;2023-11-22T04:42:59;18.88;56.65
65239;SHT30;51827;51.186;6.926;2023-11-22T04:43:59;18.88;56.60
65239;SHT30;51827;51.186;6.926;2023-11-22T04:44:59;18.86;56.65
65239;SHT30;51827;51.186;6.926;2023-11-22T04:46:00;18.85;56.66
65239;SHT30;51827;51.186;6.926;2023-11-22T04:47:00;18.86;56.71
65239;SHT30;51827;51.186;6.926;2023-11-22T04:48:01;18.88;56.71
65239;SHT30;51827;51.186;6.926;2023-11-22T04:49:01;18.86;56.80
65239;SHT30;51827;51.186;6.926;2023-11-22T04:50:01;18.84;56.77
65239;SHT30;51827;51.186;6.926;2023-11-22T04:51:02;18.85;56.79
65239;SHT30;51827;51.186;6.926;2023-11-22T04:52:02;18.88;56.81
65239;SHT30;51827;51.186;6.926;2023-11-22T04:53:03;18.88;56.86
65239;SHT30;51827;51.186;6.926;2023-11-22T04:54:03;18.86;56.82
65239;SHT30;51827;51.186;6.926;2023-11-22T04:55:04;18.88;56.82
65239;SHT30;51827;51.186;6.926;2023-11-22T04:56:04;18.85;56.82
65239;SHT30;51827;51.186;6.926;2023-11-22T04:57:05;18.88;56.81
65239;SHT30;51827;51.186;6.926;2023-11-22T04:58:06;18.88;56.84
65239;SHT30;51827;51.186;6.926;2023-11-22T04:59:06;18.88;56.81
65239;SHT30;51827;51.186;6.926;2023-11-22T05:00:07;18.85;56.75
65239;SHT30;51827;51.186;6.926;2023-11-22T05:01:13;18.88;56.80
65239;SHT30;51827;51.186;6.926;2023-11-22T05:02:24;18.86;56.80
65239;SHT30;51827;51.186;6.926;2023-11-22T05:03:24;18.88;56.80
65239;SHT30;51827;51.186;6.926;2023-11-22T05:04:24;18.88;56.77
65239;SHT30;51827;51.186;6.926;2023-11-22T05:05:25;18.86;56.81
65239;SHT30;51827;51.186;6.926;2023-11-22T05:06:25;18.86;56.84
65239;SHT30;51827;51.186;6.926;2023-11-22T05:07:25;18.88;56.84
65239;SHT30;51827;51.186;6.926;2023-11-22T05:08:26;18.85;56.76
65239;SHT30;51827;51.186;6.926;2023-11-22T05:09:26;18.88;56.75
65239;SHT30;51827;51.186;6.926;2023-11-22T05:10:26;18.89;56.76
65239;SHT30;51827;51.186;6.926;2023-11-22T05:11:26;18.91;57.14
65239;SHT30;51827;51.186;6.926;2023-11-22T05:12:27;18.89;57.34
65239;SHT30;51827;51.186;6.926;2023-11-22T05:13:27;18.88;57.41
65239;SHT30;51827;51.186;6.926;2023-11-22T05:14:27;18.88;57.36
65239;SHT30;51827;51.186;6.926;2023-11-22T05:15:27;18.91;57.06
65239;SHT30;51827;51.186;6.926;2023-11-22T05:16:27;18.89;57.03
65239;SHT30;51827;51.186;6.926;2023-11-22T05:17:28;18.86;57.01
65239;SHT30;51827;51.186;6.926;2023-11-22T05:18:28;18.86;56.95
65239;SHT30;51827;51.186;6.926;2023-11-22T05:19:29;18.89;56.93
65239;SHT30;51827;51.186;6.926;2023-11-22T05:20:29;18.88;56.92
65239;SHT30;51827;51.186;6.926;2023-11-22T05:21:29;18.88;56.83
65239;SHT30;51827;51.186;6.926;2023-11-22T05:22:30;18.88;56.85
65239;SHT30;51827;51.186;6.926;2023-11-22T05:23:30;18.89;56.84
65239;SHT30;51827;51.186;6.926;2023-11-22T05:24:31;18.88;56.85
65239;SHT30;51827;51.186;6.926;2023-11-22T05:25:31;18.86;56.79
65239;SHT30;51827;51.186;6.926;2023-11-22T05:26:31;18.85;56.83
65239;SHT30;51827;51.186;6.926;2023-11-22T05:27:31;18.88;56.79
65239;SHT30;51827;51.186;6.926;2023-11-22T05:28:32;18.86;56.81
65239;SHT30;51827;51.186;6.926;2023-11-22T05:29:32;18.88;56.77
65239;SHT30;51827;51.186;6.926;2023-11-22T05:30:32;18.89;56.80
65239;SHT30;51827;51.186;6.926;2023-11-22T05:31:32;18.86;56.76
65239;SHT30;51827;51.186;6.926;2023-11-22T05:32:33;18.88;56.78
65239;SHT30;51827;51.186;6.926;2023-11-22T05:33:33;18.86;56.76
65239;SHT30;51827;51.186;6.926;2023-11-22T05:34:33;18.88;56.76
65239;SHT30;51827;51.186;6.926;2023-11-22T05:35:33;18.85;56.77
65239;SHT30;51827;51.186;6.926;2023-11-22T05:36:34;18.86;56.71
65239;SHT30;51827;51.186;6.926;2023-11-22T05:37:34;18.85;56.75
65239;SHT30;51827;51.186;6.926;2023-11-22T05:38:34;18.86;56.71
65239;SHT30;51827;51.186;6.926;2023-11-22T05:39:34;18.88;56.72
65239;SHT30;51827;51.186;6.926;2023-11-22T05:40:35;18.85;56.73
65239;SHT30;51827;51.186;6.926;2023-11-22T05:41:35;18.85;56.74
65239;SHT30;51827;51.186;6.926;2023-11-22T05:42:35;18.88;56.74
65239;SHT30;51827;51.186;6.926;2023-11-22T05:43:35;18.85;56.72
65239;SHT30;51827;51.186;6.926;2023-11-22T05:44:36;18.86;56.71
65239;SHT30;51827;51.186;6.926;2023-11-22T05:45:36;18.86;56.71
65239;SHT30;51827;51.186;6.926;2023-11-22T05:46:36;18.84;56.71
65239;SHT30;51827;51.186;6.926;2023-11-22T05:47:36;18.88;56.66
65239;SHT30;51827;51.186;6.926;2023-11-22T05:48:37;18.88;56.67
65239;SHT30;51827;51.186;6.926;2023-11-22T05:49:37;18.84;56.69
65239;SHT30;51827;51.186;6.926;2023-11-22T05:50:37;18.85;56.66
65239;SHT30;51827;51.186;6.926;2023-11-22T05:51:37;18.84;56.62
65239;SHT30;51827;51.186;6.926;2023-11-22T05:52:38;18.86;56.62
65239;SHT30;51827;51.186;6.926;2023-11-22T05:53:38;18.85;56.62
65239;SHT30;51827;51.186;6.926;2023-11-22T05:54:38;18.85;56.62
65239;SHT30;51827;51.186;6.926;2023-11-22T05:55:38;18.84;56.60
65239;SHT30;51827;51.186;6.926;2023-11-22T05:56:39;18.86;56.58
65239;SHT30;51827;51.186;6.926;2023-11-22T05:57:40;18.85;56.55
65239;SHT30;51827;51.186;6.926;2023-11-22T05:58:40;18.84;56.56
65239;SHT30;51827;51.186;6.926;2023-11-22T05:59:40;18.85;56.55
65239;SHT30;51827;51.186;6.926;2023-11-22T06:00:41;18.85;56.56
65239;SHT30;51827;51.186;6.926;2023-11-22T06:01:41;18.84;56.55
65239;SHT30;51827;51.186;6.926;2023-11-22T06:02:41;18.88;56.53
65239;SHT30;51827;51.186;6.926;2023-11-22T06:03:42;18.84;56.50
65239;SHT30;51827;51.186;6.926;2023-11-22T06:04:42;18.86;56.49
65239;SHT30;51827;51.186;6.926;2023-11-22T06:05:42;18.85;56.51
65239;SHT30;51827;51.186;6.926;2023-11-22T06:06:43;18.84;56.53
65239;SHT30;51827;51.186;6.926;2023-11-22T06:07:43;18.82;56.53
65239;SHT30;51827;51.186;6.926;2023-11-22T06:08:43;18.84;56.51
65239;SHT30;51827;51.186;6.926;2023-11-22T06:09:43;18.82;56.44
65239;SHT30;51827;51.186;6.926;2023-11-22T06:10:44;18.84;56.48
65239;SHT30;51827;51.186;6.926;2023-11-22T06:11:44;18.84;56.47
65239;SHT30;51827;51.186;6.926;2023-11-22T06:12:44;18.84;56.44
65239;SHT30;51827;51.186;6.926;2023-11-22T06:13:44;18.86;56.44
65239;SHT30;51827;51.186;6.926;2023-11-22T06:14:45;18.84;56.41
65239;SHT30;51827;51.186;6.926;2023-11-22T06:15:45;18.85;56.42
65239;SHT30;51827;51.186;6.926;2023-11-22T06:16:46;18.82;56.45
65239;SHT30;51827;51.186;6.926;2023-11-22T06:17:47;18.82;56.43
65239;SHT30;51827;51.186;6.926;2023-11-22T06:18:47;18.84;56.44
65239;SHT30;51827;51.186;6.926;2023-11-22T06:19:47;18.86;56.38
65239;SHT30;51827;51.186;6.926;2023-11-22T06:20:47;18.85;56.38
65239;SHT30;51827;51.186;6.926;2023-11-22T06:21:48;18.82;56.40
65239;SHT30;51827;51.186;6.926;2023-11-22T06:22:48;18.84;56.34
65239;SHT30;51827;51.186;6.926;2023-11-22T06:23:48;18.82;56.36